La Rioja, Argentina
Current Conditions -  °F | °C
As of 8:06 AM on Monday 20 Oct 2014 (Local Time) from SANT Reporting Station
Drizzle Drizzle  
Wind Chill: 63°   Ceiling: 800
Heat Index: 63°   Visibility: 1.3mi
Dew Point: 61°   Wind: 3mph
Humidity: 94%   Direction: 250°WSW
Pressure: 30.18"   Gusts: NA
Location:  29.23°S, 66.49°W
Report Text: SANT 201106Z 25003KT 2200 DZ SCT005 BKN008 17/16 Q1022
Loading
Personal Weather Stations






























Interactive Weather Map
Tropical Storm Tracking
New forecast layout! Learn more

10-Day Weather Forecast

Advertisements
Track Severe Weather on mobile